Time;durP1;ratioP1;P1;durP2;ratioP2;P2;SDS_P1;SDS_P2;PMS_P1;PMS_P2;Temp;Humidity;BMP_temperature;BMP_pressure;BME280_temperature;BME280_humidity;BME280_pressure;Samples;Min_cycle;Max_cycle;Signal;HPM_P1;HPM_P2
2023/05/20 00:02:19;;;;;;;10.67;6.20;;;12.10;99.90;;;;;;5071446;28;20219;-77
2023/05/20 00:04:47;;;;;;;11.83;6.37;;;12.10;99.90;;;;;;5071045;28;20204;-77
2023/05/20 00:07:14;;;;;;;10.90;5.83;;;12.10;99.90;;;;;;5054820;28;20301;-77
2023/05/20 00:09:40;;;;;;;9.67;5.03;;;12.00;99.90;;;;;;5051611;28;20202;-77
2023/05/20 00:12:08;;;;;;;11.63;6.47;;;12.00;99.90;;;;;;5063091;28;20264;-77
2023/05/20 00:14:35;;;;;;;10.23;5.70;;;12.00;99.90;;;;;;5071308;28;20612;-77
2023/05/20 00:17:01;;;;;;;10.03;5.43;;;11.90;99.90;;;;;;5071773;28;20209;-77
2023/05/20 00:19:29;;;;;;;8.63;5.50;;;11.90;99.90;;;;;;5057895;28;20208;-77
2023/05/20 00:21:57;;;;;;;11.90;6.00;;;11.90;99.90;;;;;;5051583;28;20205;-77
2023/05/20 00:24:24;;;;;;;14.63;5.63;;;11.90;99.90;;;;;;5051522;28;20553;-76
2023/05/20 00:26:51;;;;;;;11.33;6.20;;;11.90;99.90;;;;;;5050725;28;20194;-77
2023/05/20 00:29:18;;;;;;;8.53;4.80;;;11.90;99.90;;;;;;5052090;28;20233;-76
2023/05/20 00:31:45;;;;;;;11.77;5.67;;;11.90;99.90;;;;;;5051349;28;20254;-76
2023/05/20 00:34:12;;;;;;;11.27;5.50;;;11.90;99.90;;;;;;5051262;28;20305;-76
2023/05/20 00:36:38;;;;;;;10.17;5.87;;;11.90;99.90;;;;;;5051450;28;20222;-77
2023/05/20 00:39:07;;;;;;;13.67;6.57;;;11.90;99.90;;;;;;5065893;28;20201;-80
2023/05/20 00:41:34;;;;;;;13.70;6.90;;;11.90;99.90;;;;;;5070963;28;20229;-77
2023/05/20 00:44:01;;;;;;;11.80;6.80;;;11.80;99.90;;;;;;5063135;28;20297;-77
2023/05/20 00:46:28;;;;;;;12.03;5.70;;;11.80;99.90;;;;;;5070540;28;20235;-77
2023/05/20 00:48:56;;;;;;;9.73;5.97;;;11.80;99.90;;;;;;5070728;28;20204;-77
2023/05/20 00:51:23;;;;;;;12.00;6.37;;;11.80;99.90;;;;;;5071625;28;20202;-77
2023/05/20 00:53:50;;;;;;;10.43;5.90;;;11.80;99.90;;;;;;5090851;28;20203;-77
2023/05/20 00:56:18;;;;;;;10.90;6.13;;;11.70;99.90;;;;;;5089626;28;20221;-77
2023/05/20 00:58:46;;;;;;;16.90;7.63;;;11.70;99.90;;;;;;5071311;28;20275;-77
2023/05/20 01:01:12;;;;;;;16.73;6.73;;;11.70;99.90;;;;;;5068259;28;20326;-77
2023/05/20 01:03:40;;;;;;;12.87;6.53;;;11.70;99.90;;;;;;5051233;28;20190;-77
2023/05/20 01:06:07;;;;;;;12.23;6.97;;;11.60;99.90;;;;;;5051086;28;20198;-77
2023/05/20 01:08:34;;;;;;;10.83;6.03;;;11.60;99.90;;;;;;5067567;28;20220;-77
2023/05/20 01:11:06;;;;;;;12.57;7.23;;;11.60;99.90;;;;;;5073054;28;20491;-77
2023/05/20 01:13:50;;;;;;;11.90;7.13;;;11.60;99.90;;;;;;5054923;28;20319;-77
2023/05/20 01:16:20;;;;;;;11.53;6.13;;;11.60;99.90;;;;;;5054450;28;20225;-78
2023/05/20 01:18:48;;;;;;;16.30;7.07;;;11.60;99.90;;;;;;5054552;28;20206;-77
2023/05/20 01:21:17;;;;;;;13.13;6.70;;;11.60;99.90;;;;;;5054443;28;20206;-76
2023/05/20 01:23:45;;;;;;;13.90;6.80;;;11.50;99.90;;;;;;5054037;28;20212;-78
2023/05/20 01:26:12;;;;;;;12.33;7.43;;;11.50;99.90;;;;;;5054666;28;20196;-77
2023/05/20 01:28:42;;;;;;;16.77;7.07;;;11.50;99.90;;;;;;5053654;28;20263;-77
2023/05/20 01:31:14;;;;;;;13.77;7.03;;;11.50;99.90;;;;;;5054534;28;20213;-77
2023/05/20 01:33:41;;;;;;;13.50;6.20;;;11.50;99.90;;;;;;5053839;28;20505;-77
2023/05/20 01:36:09;;;;;;;16.23;6.80;;;11.50;99.90;;;;;;5053509;28;20835;-77
2023/05/20 01:38:37;;;;;;;14.00;6.50;;;11.50;99.90;;;;;;5067325;28;20283;-77
2023/05/20 01:41:07;;;;;;;16.20;7.03;;;11.50;99.90;;;;;;5074138;28;20600;-77
2023/05/20 01:43:34;;;;;;;15.17;7.20;;;11.50;99.90;;;;;;5073535;28;20292;-77
2023/05/20 01:46:02;;;;;;;14.20;6.40;;;11.50;99.90;;;;;;5074065;28;20540;-77
2023/05/20 01:48:28;;;;;;;10.67;6.93;;;11.50;99.90;;;;;;5058868;28;20268;-77
2023/05/20 01:50:55;;;;;;;10.73;6.83;;;11.40;99.90;;;;;;5053339;28;20686;-77
2023/05/20 01:53:22;;;;;;;13.63;6.63;;;11.30;99.90;;;;;;5054135;28;20636;-77
2023/05/20 01:55:49;;;;;;;11.80;6.80;;;11.30;99.90;;;;;;5053800;28;20834;-78
2023/05/20 01:58:17;;;;;;;16.37;7.70;;;11.30;99.90;;;;;;5071025;28;20339;-78
2023/05/20 02:00:44;;;;;;;19.20;7.10;;;11.30;99.90;;;;;;5066306;28;20220;-78
2023/05/20 02:03:11;;;;;;;15.43;7.53;;;11.30;99.90;;;;;;5054199;28;20205;-78
2023/05/20 02:05:38;;;;;;;14.97;7.83;;;11.20;99.90;;;;;;5072357;28;20204;-78
2023/05/20 02:08:05;;;;;;;12.90;6.67;;;11.20;99.90;;;;;;5073764;28;20565;-77
2023/05/20 02:10:32;;;;;;;15.77;7.33;;;11.20;99.90;;;;;;5073493;28;20221;-78
2023/05/20 02:12:59;;;;;;;17.13;7.67;;;11.30;99.90;;;;;;5092090;28;20201;-77
2023/05/20 02:15:27;;;;;;;13.47;7.20;;;11.30;99.90;;;;;;5083091;28;20221;-77
2023/05/20 02:17:56;;;;;;;14.50;7.77;;;11.30;99.90;;;;;;5072593;28;20189;-76
2023/05/20 02:20:23;;;;;;;14.77;7.87;;;11.30;99.90;;;;;;5073859;28;20227;-77
2023/05/20 02:22:50;;;;;;;15.47;8.00;;;11.20;99.90;;;;;;5071933;28;20228;-77
2023/05/20 02:25:17;;;;;;;13.03;7.67;;;11.20;99.90;;;;;;5073141;28;20220;-78
2023/05/20 02:27:44;;;;;;;9.97;6.53;;;11.20;99.90;;;;;;5073319;28;20217;-78
2023/05/20 02:30:11;;;;;;;16.97;7.33;;;11.20;99.90;;;;;;5073140;28;20588;-78
2023/05/20 02:32:39;;;;;;;12.80;6.67;;;11.20;99.90;;;;;;5066724;28;20202;-77
2023/05/20 02:35:07;;;;;;;14.60;6.93;;;11.20;99.90;;;;;;5053484;28;20198;-77
2023/05/20 02:37:34;;;;;;;13.10;7.60;;;11.20;99.90;;;;;;5053414;28;20232;-77
2023/05/20 02:40:01;;;;;;;18.40;8.13;;;11.20;99.90;;;;;;5065481;28;20201;-78
2023/05/20 02:42:30;;;;;;;13.87;7.33;;;11.20;99.90;;;;;;5073292;28;20280;-76
2023/05/20 02:44:57;;;;;;;14.60;6.93;;;11.20;99.90;;;;;;5073316;28;20204;-77
2023/05/20 02:47:24;;;;;;;13.17;7.23;;;11.20;99.90;;;;;;5072280;28;20361;-77
2023/05/20 02:49:53;;;;;;;14.67;7.37;;;11.20;99.90;;;;;;5072531;28;20197;-78
2023/05/20 02:52:20;;;;;;;13.97;7.10;;;11.20;99.90;;;;;;5072937;28;20507;-77
2023/05/20 02:54:47;;;;;;;14.00;7.33;;;11.20;99.90;;;;;;5064426;28;20297;-77
2023/05/20 02:57:15;;;;;;;14.87;7.80;;;11.20;99.90;;;;;;5052606;28;20288;-77
2023/05/20 02:59:42;;;;;;;12.33;6.93;;;11.20;99.90;;;;;;5053417;28;20198;-78
2023/05/20 03:02:09;;;;;;;14.63;7.20;;;11.20;99.90;;;;;;5052635;28;20487;-78
2023/05/20 03:04:37;;;;;;;12.17;6.80;;;11.20;99.90;;;;;;5053434;28;20233;-78
2023/05/20 03:07:07;;;;;;;12.43;6.90;;;11.20;99.90;;;;;;5052404;28;20233;-77
2023/05/20 03:09:34;;;;;;;14.63;6.87;;;11.20;99.90;;;;;;5053455;28;20704;-77
2023/05/20 03:12:01;;;;;;;13.17;7.10;;;11.20;99.90;;;;;;5052487;28;20590;-77
2023/05/20 03:14:28;;;;;;;16.17;7.60;;;11.20;99.90;;;;;;5052823;28;20200;-78
2023/05/20 03:16:55;;;;;;;10.47;6.53;;;11.20;99.90;;;;;;5052681;28;20318;-78
2023/05/20 03:19:22;;;;;;;10.43;7.47;;;11.20;99.90;;;;;;5052255;28;20630;-77
2023/05/20 03:21:50;;;;;;;16.67;7.63;;;11.20;99.90;;;;;;5052189;28;20229;-78
2023/05/20 03:24:18;;;;;;;14.30;7.53;;;11.10;99.90;;;;;;5051986;28;20271;-77
2023/05/20 03:26:45;;;;;;;12.63;7.03;;;11.20;99.90;;;;;;5052190;28;20557;-77
2023/05/20 03:29:13;;;;;;;16.03;7.90;;;11.20;99.90;;;;;;5051334;28;20806;-77
2023/05/20 03:31:40;;;;;;;12.57;8.10;;;11.20;99.90;;;;;;5052394;28;20598;-77
2023/05/20 03:34:08;;;;;;;12.67;7.10;;;11.20;99.90;;;;;;5051959;28;20205;-77
2023/05/20 03:36:35;;;;;;;12.87;7.80;;;11.20;99.90;;;;;;5051777;28;20526;-79
2023/05/20 03:39:03;;;;;;;12.23;7.77;;;11.10;99.90;;;;;;5052100;28;20202;-77
2023/05/20 03:41:33;;;;;;;13.43;7.80;;;11.10;99.90;;;;;;5067056;28;20288;-78
2023/05/20 03:44:00;;;;;;;13.40;7.27;;;11.10;99.90;;;;;;5071498;28;20288;-78
2023/05/20 03:46:27;;;;;;;12.83;8.13;;;11.20;99.90;;;;;;5070726;28;20636;-77
2023/05/20 03:48:54;;;;;;;13.13;7.03;;;11.10;99.90;;;;;;5052181;28;20225;-78
2023/05/20 03:51:21;;;;;;;10.90;7.10;;;11.10;99.90;;;;;;5057260;28;20288;-78
2023/05/20 03:53:48;;;;;;;15.87;7.47;;;11.10;99.90;;;;;;5055497;28;20204;-77
2023/05/20 03:56:15;;;;;;;15.60;8.07;;;11.10;99.90;;;;;;5051777;28;20300;-76
2023/05/20 03:58:44;;;;;;;11.10;6.43;;;11.20;99.90;;;;;;5051414;28;20182;-78
2023/05/20 04:01:13;;;;;;;13.10;7.00;;;11.10;99.90;;;;;;5060583;28;20209;-77
2023/05/20 04:03:40;;;;;;;11.40;7.03;;;11.10;99.90;;;;;;5070964;28;20201;-77
2023/05/20 04:06:07;;;;;;;13.67;7.47;;;11.10;99.90;;;;;;5055541;28;20297;-78
2023/05/20 04:08:35;;;;;;;15.47;7.60;;;11.10;99.90;;;;;;5051775;28;20202;-77
2023/05/20 04:11:02;;;;;;;14.67;7.30;;;11.10;99.90;;;;;;5051488;28;20256;-76
2023/05/20 04:13:29;;;;;;;11.03;7.43;;;11.10;99.90;;;;;;5052069;28;20201;-78
2023/05/20 04:15:57;;;;;;;9.50;6.80;;;11.10;99.90;;;;;;5052107;28;20496;-78
2023/05/20 04:18:24;;;;;;;13.90;6.23;;;11.10;99.90;;;;;;5051202;28;20212;-78
2023/05/20 04:20:55;;;;;;;10.93;6.90;;;11.10;99.90;;;;;;5051722;28;20594;-77
2023/05/20 04:23:21;;;;;;;13.63;6.93;;;11.10;99.90;;;;;;5071306;28;20213;-77
2023/05/20 04:25:48;;;;;;;13.57;7.83;;;11.20;99.90;;;;;;5070754;28;20181;-78
2023/05/20 04:28:16;;;;;;;13.07;6.37;;;11.20;99.90;;;;;;5071546;28;20347;-77
2023/05/20 04:30:43;;;;;;;11.30;6.57;;;11.20;99.90;;;;;;5071092;28;20221;-77
2023/05/20 04:33:13;;;;;;;11.03;7.37;;;11.30;99.90;;;;;;5070385;28;20213;-77
2023/05/20 04:35:41;;;;;;;13.47;6.17;;;11.30;99.90;;;;;;5071749;28;20203;-78
2023/05/20 04:38:08;;;;;;;13.20;7.37;;;11.40;99.90;;;;;;5071576;28;20635;-79
2023/05/20 04:40:35;;;;;;;11.27;6.40;;;11.40;99.90;;;;;;5070997;28;20597;-77
2023/05/20 04:43:02;;;;;;;16.00;7.33;;;11.40;99.90;;;;;;5052523;28;20201;-76
2023/05/20 04:45:29;;;;;;;13.43;6.50;;;11.40;99.90;;;;;;5061536;28;20267;-77
2023/05/20 04:47:56;;;;;;;13.87;7.57;;;11.40;99.90;;;;;;5074688;28;20501;-78
2023/05/20 04:50:25;;;;;;;15.20;7.17;;;11.50;99.90;;;;;;5075419;28;20228;-77
2023/05/20 04:52:51;;;;;;;8.70;6.30;;;11.50;99.90;;;;;;5058594;28;20268;-77
2023/05/20 04:55:20;;;;;;;10.23;7.10;;;11.60;99.90;;;;;;5055519;28;20233;-79
2023/05/20 04:57:47;;;;;;;12.23;6.43;;;11.60;99.90;;;;;;5055168;28;20222;-78
2023/05/20 05:00:14;;;;;;;15.57;7.60;;;11.70;99.90;;;;;;5055120;28;20208;-78
2023/05/20 05:02:42;;;;;;;10.43;6.83;;;11.70;99.90;;;;;;5055136;28;20202;-78
2023/05/20 05:05:09;;;;;;;10.93;6.20;;;11.70;99.90;;;;;;5055212;28;20194;-78
2023/05/20 05:07:37;;;;;;;15.00;6.90;;;11.80;99.90;;;;;;5054813;28;20198;-79
2023/05/20 05:10:05;;;;;;;14.70;6.33;;;11.80;99.90;;;;;;5073431;28;20569;-77
2023/05/20 05:12:32;;;;;;;9.53;6.67;;;11.90;99.90;;;;;;5074564;28;20457;-78
2023/05/20 05:14:59;;;;;;;15.33;6.50;;;11.90;99.90;;;;;;5074509;28;20550;-77
2023/05/20 05:17:27;;;;;;;11.93;6.53;;;11.90;99.90;;;;;;5060151;28;20225;-78
2023/05/20 05:19:54;;;;;;;13.97;7.33;;;12.00;99.90;;;;;;5054760;28;20281;-78
2023/05/20 05:22:21;;;;;;;12.53;6.83;;;12.00;99.90;;;;;;5054525;28;20309;-77
2023/05/20 05:24:49;;;;;;;12.47;6.03;;;12.10;99.90;;;;;;5058636;28;20490;-77
2023/05/20 05:27:16;;;;;;;8.67;5.77;;;12.30;99.90;;;;;;5074584;28;20316;-78
2023/05/20 05:29:43;;;;;;;10.30;6.03;;;12.60;99.90;;;;;;5073907;28;20197;-77
2023/05/20 05:32:10;;;;;;;12.97;6.30;;;12.90;99.90;;;;;;5057759;28;20297;-78
2023/05/20 05:34:37;;;;;;;10.30;6.17;;;13.20;99.90;;;;;;5054648;28;20198;-77
2023/05/20 05:37:05;;;;;;;10.47;5.83;;;13.50;99.90;;;;;;5053711;28;20232;-77
2023/05/20 05:39:31;;;;;;;14.33;7.60;;;13.60;99.90;;;;;;5057373;28;20197;-77
2023/05/20 05:42:00;;;;;;;9.10;5.10;;;13.50;99.90;;;;;;5073014;28;20209;-79
2023/05/20 05:44:26;;;;;;;12.70;6.03;;;13.50;99.90;;;;;;5074715;28;20201;-81
2023/05/20 05:46:53;;;;;;;8.37;5.20;;;13.70;99.90;;;;;;5074331;28;20534;-78
2023/05/20 05:49:20;;;;;;;12.77;5.37;;;13.80;99.90;;;;;;5069644;28;20260;-78
2023/05/20 05:51:47;;;;;;;10.43;6.20;;;14.00;99.90;;;;;;5054071;28;20197;-78
2023/05/20 05:54:14;;;;;;;11.07;5.73;;;13.80;99.90;;;;;;5054043;28;20710;-77
2023/05/20 05:56:41;;;;;;;10.77;6.00;;;13.80;99.90;;;;;;5053464;28;20226;-77
2023/05/20 05:59:09;;;;;;;7.67;5.27;;;13.90;99.90;;;;;;5054281;28;20233;-77
2023/05/20 06:01:36;;;;;;;9.77;5.40;;;14.10;99.90;;;;;;5054250;28;20289;-77
2023/05/20 06:04:03;;;;;;;11.20;5.50;;;14.40;99.90;;;;;;5053139;28;20613;-78
2023/05/20 06:06:30;;;;;;;8.17;5.20;;;14.90;99.90;;;;;;5054158;28;20614;-77
2023/05/20 06:08:57;;;;;;;7.72;4.50;;;15.10;99.90;;;;;;5053871;28;20627;-78
2023/05/20 06:11:25;;;;;;;9.70;4.83;;;15.40;99.90;;;;;;5071208;28;20697;-78
2023/05/20 06:13:52;;;;;;;11.38;5.00;;;15.50;99.90;;;;;;5093653;28;20652;-78
2023/05/20 06:16:20;;;;;;;8.65;4.20;;;15.80;99.90;;;;;;5077536;28;20202;-78
2023/05/20 06:18:48;;;;;;;9.60;4.15;;;15.90;99.90;;;;;;5053346;28;20321;-78
2023/05/20 06:21:15;;;;;;;8.93;4.72;;;15.80;99.90;;;;;;5053521;28;20194;-80
2023/05/20 06:23:42;;;;;;;10.07;4.28;;;15.70;99.90;;;;;;5058872;28;20202;-78
2023/05/20 06:26:09;;;;;;;7.53;4.18;;;15.50;99.90;;;;;;5072651;28;20197;-78
2023/05/20 06:28:36;;;;;;;5.65;3.97;;;15.40;99.90;;;;;;5072559;28;20217;-78
2023/05/20 06:31:03;;;;;;;6.72;4.32;;;15.20;99.90;;;;;;5072446;28;20200;-78
2023/05/20 06:33:31;;;;;;;4.90;4.10;;;15.10;99.90;;;;;;5055377;28;20198;-77
2023/05/20 06:36:00;;;;;;;9.68;4.80;;;15.10;99.90;;;;;;5053006;28;20297;-78
2023/05/20 06:38:27;;;;;;;10.52;4.40;;;15.20;99.90;;;;;;5063816;28;20227;-77
2023/05/20 06:40:54;;;;;;;7.35;3.90;;;15.70;99.90;;;;;;5071726;28;20243;-79
2023/05/20 06:43:20;;;;;;;5.18;3.63;;;16.20;99.90;;;;;;5059069;28;20198;-80
2023/05/20 06:45:47;;;;;;;6.20;4.22;;;16.40;99.90;;;;;;5052405;28;20253;-79
2023/05/20 06:48:17;;;;;;;7.55;3.83;;;16.70;99.90;;;;;;5068646;28;20747;-80
2023/05/20 06:50:46;;;;;;;7.10;3.70;;;17.00;99.90;;;;;;5072874;28;20258;-79
2023/05/20 06:53:13;;;;;;;6.97;3.83;;;17.30;99.90;;;;;;5076875;28;20204;-79
2023/05/20 06:55:40;;;;;;;4.65;3.42;;;17.20;99.90;;;;;;5088267;28;20211;-79
2023/05/20 06:58:07;;;;;;;6.47;4.10;;;17.30;99.90;;;;;;5044052;28;20224;-78
2023/05/20 07:00:34;;;;;;;7.93;3.88;;;17.50;99.90;;;;;;5088809;28;20197;-77
2023/05/20 07:03:01;;;;;;;4.95;3.80;;;17.20;99.90;;;;;;5082861;28;20211;-82
2023/05/20 07:05:28;;;;;;;5.93;3.53;;;17.30;99.90;;;;;;5088582;28;20510;-77
2023/05/20 07:07:56;;;;;;;6.78;3.55;;;17.50;99.90;;;;;;5081665;28;20558;-78
2023/05/20 07:10:23;;;;;;;5.22;3.47;;;17.60;99.90;;;;;;5092493;28;20213;-78
2023/05/20 07:12:50;;;;;;;5.07;3.95;;;17.80;99.90;;;;;;5085915;28;20206;-78
2023/05/20 07:15:18;;;;;;;7.88;3.63;;;17.80;99.90;;;;;;5091460;28;20262;-82
2023/05/20 07:17:45;;;;;;;9.93;3.75;;;17.90;99.90;;;;;;5072638;28;20633;-78
2023/05/20 07:20:12;;;;;;;3.95;3.10;;;18.00;99.90;;;;;;5052342;28;20191;-78
2023/05/20 07:22:39;;;;;;;7.35;3.72;;;18.00;99.90;;;;;;5051748;28;20194;-78
2023/05/20 07:25:08;;;;;;;6.22;3.70;;;18.20;99.90;;;;;;5051419;28;20209;-78
2023/05/20 07:27:35;;;;;;;5.25;3.58;;;18.30;99.90;;;;;;5051340;28;20230;-78
2023/05/20 07:30:02;;;;;;;7.93;3.90;;;18.60;99.90;;;;;;5052067;28;20204;-80
2023/05/20 07:32:29;;;;;;;5.82;3.78;;;18.50;99.90;;;;;;5052273;28;20297;-79
2023/05/20 07:34:55;;;;;;;7.35;3.53;;;18.50;99.90;;;;;;5050793;28;20198;-78
2023/05/20 07:37:22;;;;;;;7.07;3.45;;;18.70;99.90;;;;;;5050954;28;20221;-78
2023/05/20 07:39:49;;;;;;;5.75;3.55;;;18.80;99.90;;;;;;5061693;28;20197;-79
2023/05/20 07:42:17;;;;;;;4.53;3.28;;;18.90;99.90;;;;;;5069618;28;20248;-78
2023/05/20 07:44:44;;;;;;;5.38;3.80;;;19.00;99.90;;;;;;5069922;28;20720;-79
2023/05/20 07:47:11;;;;;;;7.82;4.18;;;18.90;99.90;;;;;;5070306;28;20565;-79
2023/05/20 07:49:38;;;;;;;5.55;2.85;;;18.80;99.90;;;;;;5069250;28;20503;-78
2023/05/20 07:52:05;;;;;;;4.57;3.25;;;18.80;99.90;;;;;;5070255;28;20189;-78
2023/05/20 07:54:34;;;;;;;4.38;3.15;;;19.00;99.90;;;;;;5051375;28;20205;-81
2023/05/20 07:57:01;;;;;;;4.68;3.20;;;19.20;99.90;;;;;;5050453;28;20209;-80
2023/05/20 07:59:29;;;;;;;5.05;3.17;;;19.20;99.90;;;;;;5051624;28;20297;-79
2023/05/20 08:01:56;;;;;;;5.85;3.08;;;19.30;99.90;;;;;;5051366;28;20194;-78
2023/05/20 08:04:23;;;;;;;5.88;3.15;;;19.50;99.90;;;;;;5050767;28;20549;-79
2023/05/20 08:06:50;;;;;;;3.08;2.58;;;19.40;99.90;;;;;;5051121;28;20288;-78
2023/05/20 08:09:17;;;;;;;4.00;2.80;;;19.50;99.90;;;;;;5051991;28;20281;-79
2023/05/20 08:11:43;;;;;;;5.95;3.00;;;19.60;99.90;;;;;;5051176;28;20202;-80
2023/05/20 08:14:10;;;;;;;3.60;2.58;;;19.70;99.90;;;;;;5051285;28;20319;-79
2023/05/20 08:16:39;;;;;;;5.65;3.30;;;20.00;99.90;;;;;;5064319;28;20235;-78
2023/05/20 08:19:05;;;;;;;7.07;3.20;;;20.10;99.90;;;;;;5071098;28;20582;-77
2023/05/20 08:21:34;;;;;;;5.60;3.53;;;20.00;99.90;;;;;;5074820;28;20200;-79
2023/05/20 08:24:00;;;;;;;7.45;3.25;;;19.80;99.90;;;;;;5074179;28;20205;-77
2023/05/20 08:26:27;;;;;;;4.07;2.60;;;20.00;99.90;;;;;;5075627;28;20201;-80
2023/05/20 08:28:54;;;;;;;3.55;2.90;;;20.00;99.90;;;;;;5060126;28;20230;-81
2023/05/20 08:31:21;;;;;;;4.03;2.72;;;20.30;99.90;;;;;;5073596;28;20200;-85
2023/05/20 08:33:50;;;;;;;5.88;2.72;;;20.40;99.90;;;;;;5065921;28;20208;-81
2023/05/20 08:36:18;;;;;;;4.80;3.55;;;20.60;99.90;;;;;;5096607;28;20292;-88
2023/05/20 08:38:45;;;;;;;6.00;3.15;;;20.40;99.90;;;;;;5080743;28;20223;-82
2023/05/20 08:41:12;;;;;;;6.30;3.17;;;20.10;99.90;;;;;;5076134;28;20204;-85
2023/05/20 08:43:38;;;;;;;4.57;2.88;;;19.80;99.90;;;;;;5075654;28;20212;-81
2023/05/20 08:46:06;;;;;;;6.47;3.30;;;20.00;99.90;;;;;;5072134;28;20251;-85
2023/05/20 08:48:35;;;;;;;4.35;3.20;;;20.20;99.90;;;;;;5075153;28;20263;-81
2023/05/20 08:51:04;;;;;;;5.30;3.35;;;20.30;99.90;;;;;;5075382;28;20547;-80
2023/05/20 08:53:31;;;;;;;6.13;2.67;;;20.40;99.90;;;;;;5073866;28;20213;-80
2023/05/20 08:56:01;;;;;;;4.70;3.08;;;20.50;99.90;;;;;;5074670;28;20594;-80
2023/05/20 08:58:29;;;;;;;2.90;2.60;;;20.70;99.90;;;;;;5074880;28;20288;-80
2023/05/20 09:00:57;;;;;;;6.82;3.20;;;20.70;99.90;;;;;;5073908;28;20216;-81
2023/05/20 09:03:24;;;;;;;5.45;3.00;;;20.80;99.90;;;;;;5074466;28;20202;-79
2023/05/20 09:05:52;;;;;;;5.28;2.85;;;20.90;99.90;;;;;;5073921;28;20687;-79
2023/05/20 09:08:25;;;;;;;4.03;2.63;;;21.00;99.90;;;;;;5061896;28;20198;-78
2023/05/20 09:10:53;;;;;;;4.03;2.75;;;21.10;99.90;;;;;;5054795;28;20270;-81
2023/05/20 09:13:20;;;;;;;4.65;3.10;;;21.20;99.90;;;;;;5054765;28;20546;-80
2023/05/20 09:15:47;;;;;;;4.03;2.33;;;20.90;99.90;;;;;;5054604;28;20198;-81
2023/05/20 09:18:13;;;;;;;4.53;2.70;;;21.00;99.90;;;;;;5060096;28;20235;-78
2023/05/20 09:20:41;;;;;;;4.47;2.70;;;21.20;99.90;;;;;;5074632;28;20221;-81
2023/05/20 09:23:09;;;;;;;3.63;2.63;;;21.20;99.90;;;;;;5075136;28;20204;-82
2023/05/20 09:25:37;;;;;;;6.05;2.58;;;21.30;99.90;;;;;;5074913;28;20582;-80
2023/05/20 09:28:05;;;;;;;3.90;2.35;;;21.20;99.90;;;;;;5063326;28;20343;-79
2023/05/20 09:30:32;;;;;;;3.92;2.25;;;21.10;99.90;;;;;;5054368;28;20217;-79
2023/05/20 09:33:00;;;;;;;4.47;2.58;;;21.00;99.90;;;;;;5053889;28;20202;-82
2023/05/20 09:35:28;;;;;;;3.92;2.60;;;21.00;99.90;;;;;;5053884;28;20206;-80
2023/05/20 09:37:56;;;;;;;5.53;3.17;;;21.20;99.90;;;;;;5054159;28;20317;-79
2023/05/20 09:40:25;;;;;;;5.00;2.50;;;21.00;99.90;;;;;;5054906;28;20204;-79
2023/05/20 09:42:56;;;;;;;4.32;2.42;;;21.10;99.90;;;;;;5053888;28;20208;-79
2023/05/20 09:45:23;;;;;;;3.67;2.50;;;21.20;99.90;;;;;;5054340;28;20477;-81
2023/05/20 09:47:51;;;;;;;3.60;2.17;;;20.80;99.90;;;;;;5054066;28;20239;-79
2023/05/20 09:50:21;;;;;;;5.47;2.38;;;21.00;99.90;;;;;;5053492;28;20205;-79
2023/05/20 09:52:49;;;;;;;3.85;2.15;;;21.10;99.90;;;;;;5054269;28;20213;-80
2023/05/20 09:55:18;;;;;;;3.63;2.20;;;21.40;99.90;;;;;;5053615;28;20205;-81
2023/05/20 09:57:45;;;;;;;4.82;2.00;;;21.50;99.90;;;;;;5053751;28;20244;-79
2023/05/20 10:00:16;;;;;;;3.50;2.10;;;21.60;99.90;;;;;;5072563;28;20641;-79
2023/05/20 10:02:44;;;;;;;3.28;2.10;;;21.40;99.90;;;;;;5072469;28;20186;-79
2023/05/20 10:05:16;;;;;;;4.75;2.13;;;21.60;99.90;;;;;;5073871;28;20627;-80
2023/05/20 10:08:15;;;;;;;3.80;2.17;;;21.60;99.90;;;;;;5069596;28;20205;-81
2023/05/20 10:10:49;;;;;;;3.08;2.08;;;21.70;99.90;;;;;;5053654;28;20221;-79
2023/05/20 10:13:32;;;;;;;4.10;2.00;;;21.50;99.90;;;;;;5054110;28;20204;-85
2023/05/20 10:16:11;;;;;;;3.58;2.20;;;21.50;99.90;;;;;;5054517;28;20206;-79
2023/05/20 10:18:51;;;;;;;3.75;1.67;;;21.50;99.90;;;;;;5054095;28;20307;-77
2023/05/20 10:21:23;;;;;;;3.25;1.52;;;21.40;99.90;;;;;;5053936;28;20289;-79
2023/05/20 10:23:50;;;;;;;2.50;1.77;;;21.30;99.90;;;;;;5052986;28;20305;-78
2023/05/20 10:26:17;;;;;;;3.00;1.55;;;21.50;99.90;;;;;;5053461;28;20212;-78
2023/05/20 10:28:45;;;;;;;3.58;1.98;;;21.40;99.90;;;;;;5053480;28;20312;-78
2023/05/20 10:31:18;;;;;;;2.95;1.67;;;21.50;99.90;;;;;;5072958;28;20211;-81
2023/05/20 10:33:46;;;;;;;3.50;1.85;;;21.60;99.90;;;;;;5073519;28;20197;-83
2023/05/20 10:36:24;;;;;;;6.00;1.70;;;21.70;99.90;;;;;;5073393;28;20380;-80
2023/05/20 10:38:53;;;;;;;3.53;1.75;;;21.90;99.90;;;;;;5064559;28;20214;-82
2023/05/20 10:41:22;;;;;;;6.78;1.85;;;21.90;99.90;;;;;;5053296;28;20209;-80
2023/05/20 10:44:01;;;;;;;1.83;1.45;;;21.70;99.90;;;;;;5051980;28;20206;-79
2023/05/20 10:46:29;;;;;;;2.58;1.70;;;21.70;99.90;;;;;;5052888;28;20233;-80
2023/05/20 10:48:56;;;;;;;2.50;1.48;;;21.80;99.90;;;;;;5053705;28;20205;-83
2023/05/20 10:51:24;;;;;;;3.05;1.63;;;21.80;99.90;;;;;;5054272;28;20204;-84
2023/05/20 10:53:53;;;;;;;4.15;2.00;;;21.90;99.90;;;;;;5054009;28;20201;-80
2023/05/20 10:56:22;;;;;;;2.50;1.40;;;21.70;99.90;;;;;;5066994;28;20205;-86
2023/05/20 10:58:50;;;;;;;3.15;2.22;;;21.90;99.90;;;;;;5073223;28;20232;-80
2023/05/20 11:01:17;;;;;;;1.70;1.40;;;22.20;99.90;;;;;;5073013;28;20201;-80
2023/05/20 11:03:47;;;;;;;6.93;1.48;;;22.30;99.90;;;;;;5072421;28;20280;-80
2023/05/20 11:06:15;;;;;;;2.60;1.83;;;22.40;99.90;;;;;;5072816;28;20203;-78
2023/05/20 11:08:42;;;;;;;2.03;1.50;;;22.40;99.90;;;;;;5072049;28;20208;-79
2023/05/20 11:11:11;;;;;;;3.70;1.60;;;22.20;99.90;;;;;;5070186;28;20211;-81
2023/05/20 11:13:37;;;;;;;3.30;1.95;;;22.40;99.90;;;;;;5072528;28;20202;-81
2023/05/20 11:16:05;;;;;;;4.18;1.88;;;22.30;99.90;;;;;;5072609;28;20201;-81
2023/05/20 11:18:32;;;;;;;4.28;1.83;;;22.40;99.90;;;;;;5070148;28;20217;-80
2023/05/20 11:21:01;;;;;;;3.40;1.83;;;22.40;99.90;;;;;;5072125;28;20201;-82
2023/05/20 11:23:29;;;;;;;4.15;1.85;;;22.20;99.90;;;;;;5065714;28;20278;-82
2023/05/20 11:25:57;;;;;;;2.40;1.65;;;22.30;99.90;;;;;;5053235;28;20532;-81
2023/05/20 11:28:24;;;;;;;4.22;1.55;;;22.00;99.90;;;;;;5052724;28;20218;-84
2023/05/20 11:30:52;;;;;;;2.78;1.67;;;22.00;99.90;;;;;;5053526;28;20277;-81
2023/05/20 11:33:21;;;;;;;4.35;2.00;;;22.00;99.90;;;;;;5052928;28;20255;-79
2023/05/20 11:35:50;;;;;;;4.85;1.50;;;21.70;99.90;;;;;;5051775;28;20200;-80
2023/05/20 11:38:19;;;;;;;2.70;1.60;;;21.90;99.90;;;;;;5053144;28;20289;-80
2023/05/20 11:40:47;;;;;;;6.45;1.80;;;22.00;99.90;;;;;;5055821;28;20205;-80
2023/05/20 11:43:15;;;;;;;2.90;1.70;;;22.10;99.90;;;;;;5072895;28;20201;-78
2023/05/20 11:45:43;;;;;;;3.92;2.20;;;22.30;99.90;;;;;;5072303;28;20244;-78
2023/05/20 11:48:11;;;;;;;2.13;1.85;;;22.60;99.90;;;;;;5052623;28;20202;-80
2023/05/20 11:50:39;;;;;;;4.28;2.03;;;22.80;99.90;;;;;;5052141;28;20209;-80
2023/05/20 11:53:07;;;;;;;3.53;2.05;;;22.80;99.90;;;;;;5052343;28;20241;-81
2023/05/20 11:55:45;;;;;;;3.03;2.00;;;23.00;99.90;;;;;;5052335;28;20233;-82
2023/05/20 11:58:15;;;;;;;3.70;1.58;;;23.40;99.90;;;;;;5051980;28;20202;-79
2023/05/20 12:00:42;;;;;;;2.50;2.00;;;23.30;99.90;;;;;;5067641;28;20209;-79
2023/05/20 12:03:08;;;;;;;3.95;2.00;;;23.00;99.90;;;;;;5067494;28;20198;-85
2023/05/20 12:05:35;;;;;;;3.47;2.08;;;22.90;99.90;;;;;;5052677;28;20613;-82
2023/05/20 12:08:02;;;;;;;5.22;2.08;;;23.10;99.90;;;;;;5052823;28;20251;-81
2023/05/20 12:10:30;;;;;;;3.33;1.80;;;22.90;99.90;;;;;;5052151;28;20205;-79
2023/05/20 12:12:58;;;;;;;4.55;2.10;;;22.70;99.90;;;;;;5065736;28;20208;-84
2023/05/20 12:15:25;;;;;;;3.67;2.20;;;22.30;99.90;;;;;;5071221;28;20207;-80
2023/05/20 12:17:53;;;;;;;4.78;2.08;;;22.20;99.90;;;;;;5070955;28;20193;-81
2023/05/20 12:20:22;;;;;;;3.13;1.95;;;22.20;99.90;;;;;;5070052;28;20221;-80
2023/05/20 12:22:49;;;;;;;2.25;2.05;;;22.30;99.90;;;;;;5071840;28;20247;-80
2023/05/20 12:25:18;;;;;;;2.13;1.92;;;22.20;99.90;;;;;;5081704;28;20201;-80
2023/05/20 12:27:46;;;;;;;3.20;1.63;;;22.00;99.90;;;;;;5071892;28;20227;-82
2023/05/20 12:30:16;;;;;;;2.38;1.67;;;21.80;99.90;;;;;;5071343;28;20224;-81
2023/05/20 12:32:43;;;;;;;3.78;2.22;;;21.70;99.90;;;;;;5072497;28;20201;-86
2023/05/20 12:35:10;;;;;;;3.75;2.30;;;21.60;99.90;;;;;;5057781;28;20225;-82
2023/05/20 12:37:38;;;;;;;3.13;2.15;;;21.60;99.90;;;;;;5091601;28;20195;-80
2023/05/20 12:40:07;;;;;;;5.22;2.30;;;21.40;99.90;;;;;;5082234;28;20625;-80
2023/05/20 12:42:34;;;;;;;3.35;2.50;;;21.60;99.90;;;;;;5072494;28;20201;-79
2023/05/20 12:45:01;;;;;;;4.80;1.90;;;21.70;99.90;;;;;;5071046;28;20208;-81
2023/05/20 12:47:30;;;;;;;5.72;2.30;;;21.70;99.90;;;;;;5071555;28;20658;-80